METAR AND TAF INFORMATION
METAR FOR YBRM
ADDS - METARS form results

(0453 UTC 25 September 2018)
Data provider http://aviationweather.gov/metar/data/
 
METAR text: YBRM 250430Z 15009KT CAVOK 38/M02 Q1010
Conditions at: YBRM (BROOME AIRPORT , AU) observed 0430 UTC 25 September 2018
Temperature: 38.0°C (100°F)
Dewpoint: -2.0°C (28°F) [RH =  8%]
Pressure (altimeter): 29.82 inches Hg (1010.0 mb)
Winds: from the SSE (150 degrees) at 10 MPH (9 knots; 4.6 m/s)
Visibility: 6 or more miles (10+ km)
Ceiling: ceiling and visibility are OK
Clouds: unknown
Weather: no significant weather observed at this time

METAR text: YBRM 250400Z AUTO 14010KT 9999 // NCD 38/M03 Q1011
Conditions at: YBRM (BROOME AIRPORT , AU) observed 0400 UTC 25 September 2018
Temperature: 38.0°C (100°F)
Dewpoint: -3.0°C (27°F) [RH =  7%]
Pressure (altimeter): 29.85 inches Hg (1011.0 mb)
Winds: from the SE (140 degrees) at 12 MPH (10 knots; 5.1 m/s)
Visibility: 6 or more miles (10+ km)
Ceiling: at least 12,000 feet AGL
Clouds: sky clear below 12,000 feet AGL
Weather: no significant weather observed at this time

Forecast for: YBRM (BROOME AIRPORT , AU)
Text: TAF YBRM 242315Z 2500/2524 12007KT CAVOK
Forecast period: 0000 to 0600 UTC 25 September 2018
Forecast type: FROM: standard forecast or significant change
Winds: from the ESE (120 degrees) at 8 MPH (7 knots; 3.6 m/s)
Visibility: 6 or more miles 10+ km)
Ceiling: unknown
Clouds: missing
Weather: NSW  (no significant weather)
Text: FM250600 30012KT CAVOK
Forecast period: 0600 to 1400 UTC 25 September 2018
Forecast type: FROM: standard forecast or significant change
Winds: from the WNW (300 degrees) at 14 MPH (12 knots; 6.2 m/s)
Visibility: 6 or more miles 10+ km)
Ceiling: unknown
Clouds: missing
Weather: NSW  (no significant weather)
Text: FM251400 VRB03KT CAVOK
Forecast period: 1400 UTC 25 September 2018 to 0000 UTC 26 September 2018
Forecast type: FROM: standard forecast or significant change
Winds: variable direction winds at 3 MPH (3 knots; 1.5 m/s)
Visibility: 6 or more miles 10+ km)
Ceiling: unknown
Clouds: missing
Weather: NSW  (no significant weather)

 AIRPORT MAP

 RUNWAY INFORMATION
Runway 10 Runway length 8064 ft Runway width 148 ft
Runway elevation 56 ft Runway displaced threshold 295 ft Runway heading 105
Runway 28 Runway length 8064 ft Runway width 148 ft
Runway elevation 22 ft Runway displaced threshold 689 ft Runway heading 285

 AIRPORT FREQUENCIES
Type ATIS Name ATIS Frequency 126.55 MHZ
Type CTAF Name CTAF Frequency 126 MHZ
Type FSS Name BRISBANE C Frequency 123.9 MHZ

 AIRPORT NEAR NAVIGATION AIDS
Type NDB-DME Name Broome Frequency 320 KHZ